createdAt,value
2023-06-19T05:00:30.777Z,7.95
2023-06-19T05:03:17.957Z,11.68
2023-06-19T05:06:04.403Z,14.85
2023-06-19T05:08:50.757Z,13.80
2023-06-19T05:11:37.317Z,16.50
2023-06-19T05:14:23.337Z,15.65
2023-06-19T05:32:53.928Z,12.43
2023-06-19T05:35:40.362Z,15.75
2023-06-19T05:38:29.207Z,14.32
2023-06-19T05:41:18.636Z,17.85
2023-06-19T05:44:04.783Z,16.95
2023-06-19T05:46:51.373Z,13.85
2023-06-19T05:49:39.121Z,12.80
2023-06-19T05:52:29.008Z,16.10
2023-06-19T05:55:17.249Z,16.30
2023-06-19T05:58:03.805Z,13.63
2023-06-19T06:00:58.427Z,12.05
2023-06-19T06:03:46.479Z,13.57
2023-06-19T06:06:34.371Z,8.48
2023-06-19T06:09:21.691Z,9.80
2023-06-19T06:12:08.300Z,8.23
2023-06-19T06:14:55.045Z,10.15
2023-06-19T06:17:41.371Z,7.78
2023-06-19T06:20:29.127Z,9.38
2023-06-19T06:23:17.028Z,10.13
2023-06-19T06:26:04.369Z,9.77
2023-06-19T06:28:50.846Z,9.70
2023-06-19T06:31:37.981Z,10.20
2023-06-19T06:34:26.425Z,11.80
2023-06-19T06:37:12.728Z,10.20
2023-06-19T06:40:01.773Z,12.48
2023-06-19T06:42:48.329Z,13.23
2023-06-19T06:45:34.812Z,18.15
2023-06-19T06:48:21.041Z,19.90
2023-06-19T06:51:08.143Z,18.27
2023-06-19T06:53:54.601Z,16.73
2023-06-19T06:56:42.325Z,19.55
2023-06-19T06:59:28.985Z,17.90
2023-06-19T07:02:15.298Z,21.73
2023-06-19T07:05:01.646Z,20.75
2023-06-19T07:07:48.273Z,22.25
2023-06-19T07:10:34.415Z,18.45
2023-06-19T07:13:23.223Z,25.05
2023-06-19T07:16:09.401Z,23.67
2023-06-19T07:18:57.118Z,22.65
2023-06-19T07:21:44.738Z,21.70
2023-06-19T07:24:31.422Z,24.13
2023-06-19T07:27:17.842Z,21.23
2023-06-19T07:30:08.123Z,23.80
2023-06-19T07:32:55.189Z,23.98
2023-06-19T07:35:42.886Z,20.67
2023-06-19T07:38:30.402Z,17.90
2023-06-19T07:41:18.261Z,22.60
2023-06-19T07:44:04.231Z,22.25
2023-06-19T07:46:54.213Z,24.25
2023-06-19T07:49:40.452Z,22.23
2023-06-19T07:52:26.294Z,26.42
2023-06-19T07:55:13.336Z,21.80
2023-06-19T07:57:59.670Z,19.27
2023-06-19T08:00:46.046Z,21.83
2023-06-19T08:03:35.940Z,23.05
2023-06-19T08:06:24.157Z,22.35
2023-06-19T08:09:10.413Z,22.90
2023-06-19T08:11:57.437Z,18.95
2023-06-19T08:14:45.189Z,23.83
2023-06-19T08:17:32.447Z,21.17
2023-06-19T08:20:22.467Z,21.30
2023-06-19T08:25:56.164Z,20.73
2023-06-19T08:28:42.560Z,24.77
2023-06-19T08:31:30.319Z,23.08
2023-06-19T08:34:16.961Z,23.98
2023-06-19T08:37:05.785Z,23.48
2023-06-19T08:39:53.561Z,22.63
2023-06-19T08:42:40.885Z,24.73
2023-06-19T08:45:30.273Z,25.83
2023-06-19T08:48:18.372Z,26.17
2023-06-19T08:51:06.541Z,23.20
2023-06-19T08:53:59.159Z,20.02
2023-06-19T08:56:45.549Z,22.88
2023-06-19T08:59:34.298Z,20.20
2023-06-19T09:02:21.299Z,22.30
2023-06-19T09:05:16.273Z,20.85
2023-06-19T09:08:02.828Z,19.92
2023-06-19T09:10:58.744Z,21.67
2023-06-19T09:13:49.229Z,21.98
2023-06-19T09:16:40.290Z,25.08
2023-06-19T09:19:26.818Z,21.42
2023-06-19T09:22:15.135Z,21.98
2023-06-19T09:25:03.068Z,24.92
2023-06-19T09:27:50.581Z,21.20
2023-06-19T09:30:37.091Z,21.55
2023-06-19T09:33:25.497Z,19.35
2023-06-19T09:36:12.536Z,19.45
2023-06-19T09:39:01.507Z,20.50
2023-06-19T09:41:49.803Z,21.70
2023-06-19T09:44:45.605Z,18.45
2023-06-19T09:47:34.495Z,20.27
2023-06-19T09:50:28.033Z,21.02
2023-06-19T09:53:14.036Z,22.33
2023-06-19T09:56:02.310Z,19.98
2023-06-19T09:58:48.857Z,23.13
2023-06-19T10:01:37.351Z,20.10
2023-06-19T10:04:25.750Z,18.65
2023-06-19T10:07:18.003Z,22.35
2023-06-19T10:10:07.100Z,16.42
2023-06-19T10:12:55.971Z,21.40
2023-06-19T11:59:29.171Z,15.30
2023-06-19T12:02:15.578Z,14.68
2023-06-19T12:05:01.946Z,15.35
2023-06-19T12:07:48.242Z,15.30
2023-06-19T12:10:35.343Z,12.35
2023-06-19T12:13:21.498Z,16.70
2023-06-19T12:16:09.671Z,14.02
2023-06-19T12:18:56.050Z,12.20
2023-06-19T12:21:43.178Z,14.65
2023-06-19T12:24:31.948Z,14.57
2023-06-19T12:27:18.121Z,14.82
2023-06-19T12:30:04.390Z,15.55
2023-06-19T12:32:52.251Z,12.07
2023-06-19T12:35:40.669Z,14.68
2023-06-19T12:38:26.702Z,12.77
2023-06-19T12:41:13.798Z,16.45
2023-06-19T12:44:00.277Z,10.38
2023-06-19T12:46:48.903Z,10.13
2023-06-19T12:49:36.491Z,11.25
2023-06-19T12:52:22.489Z,12.25
2023-06-19T12:55:12.006Z,13.98
2023-06-19T12:58:02.334Z,11.50
2023-06-19T13:00:48.411Z,10.60
2023-06-19T13:03:34.784Z,12.00
2023-06-19T13:06:22.239Z,10.55
2023-06-19T13:09:08.767Z,11.98
2023-06-19T13:11:55.345Z,13.13
2023-06-19T13:14:43.207Z,11.90
2023-06-19T13:17:30.294Z,11.15
2023-06-19T13:20:16.857Z,10.52
2023-06-19T13:23:04.735Z,12.80
2023-06-19T13:25:52.815Z,15.50
2023-06-19T13:28:39.372Z,11.45
2023-06-19T13:31:25.470Z,13.20
2023-06-19T13:34:14.811Z,12.10
2023-06-19T13:37:01.378Z,12.60
2023-06-19T13:39:49.910Z,11.15
2023-06-19T13:42:36.291Z,9.75
2023-06-19T13:45:23.281Z,13.88
2023-06-19T13:48:09.365Z,12.77
2023-06-19T13:50:55.774Z,11.10
2023-06-19T13:53:42.132Z,11.38
2023-06-19T13:56:29.701Z,10.32
2023-06-19T13:59:15.927Z,12.13
2023-06-19T14:02:02.481Z,11.35
2023-06-19T14:04:48.642Z,9.77
2023-06-19T14:07:35.977Z,10.45
2023-06-19T14:10:22.561Z,8.73
2023-06-19T14:13:12.406Z,9.88
2023-06-19T14:16:00.817Z,12.23
2023-06-19T14:18:46.919Z,8.40
2023-06-19T14:21:32.897Z,13.70
2023-06-19T14:24:19.589Z,11.35
2023-06-19T14:27:06.612Z,9.85
2023-06-19T14:29:55.317Z,10.38
2023-06-19T14:32:41.622Z,6.97
2023-06-19T14:35:28.198Z,7.55
2023-06-19T14:38:15.227Z,9.35
2023-06-19T14:41:02.414Z,6.72
2023-06-19T14:43:48.653Z,7.15
2023-06-19T14:46:40.145Z,7.00
2023-06-19T14:49:26.865Z,9.95
2023-06-19T14:52:12.889Z,7.45
2023-06-19T14:54:59.703Z,8.57
2023-06-19T14:57:45.873Z,8.80
2023-06-19T15:06:52.619Z,8.38
2023-06-19T15:09:39.058Z,9.50
2023-06-19T15:12:30.313Z,10.15
2023-06-19T15:15:17.344Z,10.13
2023-06-19T15:18:04.061Z,11.77
2023-06-19T15:20:51.568Z,9.30
2023-06-19T15:23:42.147Z,7.53
2023-06-19T15:26:30.299Z,7.10
2023-06-19T15:29:17.285Z,6.65
2023-06-19T15:32:03.874Z,8.98
2023-06-19T15:34:49.968Z,8.38
2023-06-19T15:37:36.197Z,6.85
2023-06-19T15:40:27.287Z,8.40
2023-06-19T15:43:13.662Z,8.25
2023-06-19T15:46:00.186Z,7.00
2023-06-19T15:48:47.712Z,8.85
2023-06-19T15:51:33.864Z,7.38
2023-06-19T15:54:20.612Z,9.30
2023-06-19T15:57:08.947Z,9.52
2023-06-19T15:59:55.196Z,8.00
2023-06-19T16:02:44.443Z,6.70
2023-06-19T16:05:30.958Z,8.70
2023-06-19T16:08:17.600Z,5.55
2023-06-19T16:11:05.651Z,6.95
2023-06-19T16:13:53.547Z,41.63
2023-06-19T16:47:33.661Z,415.33
2023-06-19T16:50:19.792Z,195.32
2023-06-19T16:53:09.850Z,236.32
2023-06-19T16:55:57.500Z,302.50
2023-06-19T16:58:43.655Z,257.70
2023-06-19T17:01:36.816Z,33.28
2023-06-19T17:04:23.402Z,242.85
2023-06-19T17:07:12.839Z,31.85
2023-06-19T17:12:53.058Z,9.52
2023-06-19T17:15:39.190Z,6.32
2023-06-19T17:18:26.492Z,8.02
2023-06-19T17:21:14.811Z,6.75
2023-06-19T17:24:00.799Z,8.23
2023-06-19T17:26:47.175Z,6.05
2023-06-19T17:29:33.685Z,8.05
2023-06-19T17:32:20.255Z,9.82
2023-06-19T17:35:10.943Z,7.43
2023-06-19T17:37:56.920Z,8.50
2023-06-19T17:40:44.371Z,7.80
2023-06-19T17:43:55.808Z,9.07
2023-06-19T17:46:47.569Z,10.50
2023-06-19T17:49:38.173Z,11.32
2023-06-19T17:52:26.795Z,14.32
2023-06-19T17:58:00.434Z,11.90
2023-06-19T18:00:46.674Z,11.10
2023-06-19T18:03:33.351Z,7.95
2023-06-19T18:06:29.261Z,12.90
2023-06-19T18:09:16.625Z,10.65
2023-06-19T18:12:03.188Z,11.32
2023-06-19T18:15:07.596Z,17.50
2023-06-19T18:18:01.326Z,16.63
2023-06-19T18:20:48.734Z,12.38
2023-06-19T18:23:38.215Z,10.45
2023-06-19T18:26:29.164Z,13.80
2023-06-19T18:29:16.486Z,11.93
2023-06-19T18:32:03.357Z,15.50
2023-06-19T18:34:49.163Z,10.43
2023-06-19T18:37:38.443Z,16.53
2023-06-19T18:40:28.760Z,10.68
2023-06-19T18:46:02.694Z,13.75
2023-06-19T18:48:48.890Z,10.80
2023-06-19T18:51:37.591Z,12.02
2023-06-19T18:54:52.260Z,13.82
2023-06-19T18:57:39.202Z,15.27
2023-06-19T19:47:58.165Z,18.10
2023-06-19T19:50:44.520Z,14.60
2023-06-19T19:53:30.970Z,11.73
2023-06-19T19:56:17.408Z,13.20
2023-06-19T19:59:03.391Z,10.02
2023-06-19T22:02:03.630Z,13.10
2023-06-19T22:04:50.145Z,12.98
2023-06-19T22:07:36.351Z,10.48
2023-06-19T22:10:22.546Z,12.77
2023-06-19T22:13:11.448Z,13.88
